Time;durP1;ratioP1;P1;durP2;ratioP2;P2;SDS_P1;SDS_P2;PMS_P1;PMS_P2;Temp;Humidity;BMP_temperature;BMP_pressure;BME280_temperature;BME280_humidity;BME280_pressure;Samples;Min_cycle;Max_cycle;Signal;HPM_P1;HPM_P2
2022/07/13 00:01:30;;;;;;;7.20;2.60;;;;;;;12.03;67.92;101084.14;106885;1252;59646;-80
2022/07/13 00:03:58;;;;;;;3.30;2.00;;;;;;;12.00;68.07;101085.23;107039;1252;72646;-82
2022/07/13 00:06:32;;;;;;;3.10;1.70;;;;;;;11.98;67.97;101086.05;106912;1254;70762;-79
2022/07/13 00:09:03;;;;;;;2.70;1.80;;;;;;;11.99;67.39;101082.13;106921;1254;67793;-80
2022/07/13 00:11:31;;;;;;;3.00;1.70;;;;;;;11.98;67.33;101080.66;106771;1254;72450;-82
2022/07/13 00:13:58;;;;;;;3.80;1.70;;;;;;;11.93;66.82;101083.27;106882;1254;61389;-80
2022/07/13 00:16:25;;;;;;;3.70;1.80;;;;;;;11.87;67.84;101079.36;107126;1251;60090;-82
2022/07/13 00:18:58;;;;;;;2.60;1.80;;;;;;;11.83;67.47;101079.77;107013;1254;71348;-82
2022/07/13 00:21:31;;;;;;;4.00;1.60;;;;;;;11.80;68.58;101075.29;107165;1251;72034;-77
2022/07/13 00:24:02;;;;;;;3.30;1.40;;;;;;;11.76;68.84;101072.39;107167;1250;69162;-77
2022/07/13 00:26:33;;;;;;;4.30;1.80;;;;;;;11.72;69.04;101071.67;107221;1250;75326;-74
2022/07/13 00:29:01;;;;;;;3.80;1.60;;;;;;;11.64;69.50;101071.35;107206;1250;60134;-77
2022/07/13 00:31:34;;;;;;;6.00;1.50;;;;;;;11.57;69.73;101069.93;107324;1249;60420;-79
2022/07/13 00:34:02;;;;;;;4.90;1.80;;;;;;;11.52;68.63;101071.85;107292;1250;70353;-77
2022/07/13 00:36:33;;;;;;;4.10;1.50;;;;;;;11.47;69.43;101070.81;107242;1250;72322;-78
2022/07/13 00:39:03;;;;;;;4.20;1.60;;;;;;;11.44;70.10;101065.45;107229;1251;71016;-78
2022/07/13 00:41:35;;;;;;;3.60;1.60;;;;;;;11.41;70.42;101069.67;107187;1251;72876;-79
2022/07/13 00:44:10;;;;;;;4.00;1.80;;;;;;;11.37;70.69;101064.03;106982;1251;60581;-78
2022/07/13 00:46:58;;;;;;;4.20;1.80;;;;;;;11.40;70.41;101056.29;107175;1250;60283;-79
2022/07/13 00:49:31;;;;;;;3.50;1.70;;;;;;;11.41;70.33;101057.24;107791;1244;72631;-79
2022/07/13 00:52:02;;;;;;;3.20;1.50;;;;;;;11.42;70.40;101058.95;107867;1244;69941;-80
2022/07/13 00:54:37;;;;;;;3.10;1.40;;;;;;;11.40;69.53;101059.46;107957;1241;69503;-77
2022/07/13 00:57:15;;;;;;;3.30;1.50;;;;;;;11.34;70.29;101056.54;108047;1243;72368;-77
2022/07/13 00:59:54;;;;;;;2.20;1.30;;;;;;;11.31;70.28;101060.11;107857;1244;59886;-77
2022/07/13 01:02:24;;;;;;;3.40;1.80;;;;;;;11.24;70.09;101054.32;107955;1244;59988;-76
2022/07/13 01:05:00;;;;;;;3.20;1.40;;;;;;;11.20;70.49;101055.77;107932;1244;73639;-76
2022/07/13 01:07:31;;;;;;;2.30;1.40;;;;;;;11.17;69.43;101056.90;107941;1244;70848;-80
2022/07/13 01:10:05;;;;;;;2.00;1.50;;;;;;;11.14;69.82;101048.04;107786;1244;70097;-78
2022/07/13 01:12:40;;;;;;;3.30;1.80;;;;;;;11.17;70.77;101045.88;107736;1244;72528;-79
2022/07/13 01:15:10;;;;;;;5.20;1.70;;;;;;;11.18;70.94;101045.66;107562;1244;63461;-78
2022/07/13 01:17:38;;;;;;;1.90;1.40;;;;;;;11.18;70.72;101044.24;107748;1244;59999;-77
2022/07/13 01:20:10;;;;;;;2.80;1.50;;;;;;;11.12;70.94;101048.30;107506;1242;73697;-77
2022/07/13 01:22:45;;;;;;;3.30;1.50;;;;;;;11.07;70.97;101044.51;107850;1244;71838;-78
2022/07/13 01:25:22;;;;;;;2.70;1.60;;;;;;;11.02;70.70;101040.11;108213;1244;70810;-79
2022/07/13 01:27:51;;;;;;;2.60;1.70;;;;;;;11.00;71.02;101037.67;107765;1243;73128;-76
2022/07/13 01:30:18;;;;;;;2.20;1.40;;;;;;;10.98;71.07;101033.11;107696;1244;61885;-80
2022/07/13 01:32:54;;;;;;;2.70;1.50;;;;;;;10.95;71.41;101025.11;107675;1244;61123;-76
2022/07/13 01:35:25;;;;;;;2.40;1.40;;;;;;;10.94;71.99;101026.02;107867;1244;73973;-75
2022/07/13 01:37:54;;;;;;;3.10;1.50;;;;;;;10.99;71.84;101023.58;107640;1244;70766;-78
2022/07/13 01:40:23;;;;;;;3.50;1.50;;;;;;;10.98;71.53;101021.25;107456;1244;70555;-77
2022/07/13 01:42:55;;;;;;;4.30;1.80;;;;;;;10.92;71.71;101020.23;107551;1243;72353;-74
2022/07/13 01:45:27;;;;;;;2.10;1.30;;;;;;;10.92;71.76;101015.24;107898;1244;61272;-78
2022/07/13 01:47:56;;;;;;;2.90;1.80;;;;;;;10.89;71.94;101012.77;107707;1244;60394;-77
2022/07/13 01:50:30;;;;;;;2.60;1.40;;;;;;;10.86;72.18;101011.27;107824;1243;73495;-78
2022/07/13 01:52:58;;;;;;;3.90;1.70;;;;;;;10.86;72.28;101009.02;107736;1244;70558;-77
2022/07/13 01:55:28;;;;;;;2.40;1.40;;;;;;;10.86;72.39;101007.56;107789;1244;70703;-78
2022/07/13 01:58:00;;;;;;;3.60;1.60;;;;;;;10.86;72.02;101005.52;108062;1243;72306;-79
2022/07/13 02:00:34;;;;;;;5.00;1.50;;;;;;;10.85;71.82;101003.48;107864;1244;59064;-79
2022/07/13 02:03:14;;;;;;;2.80;1.60;;;;;;;10.86;72.28;101005.09;108289;1244;61072;-77
2022/07/13 02:05:42;;;;;;;1.90;1.40;;;;;;;10.88;72.06;100999.98;109538;1244;72568;-76
2022/07/13 02:08:20;;;;;;;3.20;1.60;;;;;;;10.96;71.88;101001.65;109393;1242;71847;-79
2022/07/13 02:10:49;;;;;;;4.30;1.60;;;;;;;11.03;71.56;101001.40;108733;1244;70626;-78
2022/07/13 02:13:28;;;;;;;5.70;1.60;;;;;;;11.04;71.61;101004.42;108339;1244;71641;-80
2022/07/13 02:15:59;;;;;;;4.20;1.60;;;;;;;11.06;71.25;101004.27;108417;1244;60142;-78
2022/07/13 02:18:36;;;;;;;5.30;1.60;;;;;;;11.11;71.16;100999.95;108262;1244;60506;-78
2022/07/13 02:21:05;;;;;;;2.10;1.50;;;;;;;11.14;70.93;100997.48;108236;1243;72280;-81
2022/07/13 02:23:38;;;;;;;3.00;2.40;;;;;;;11.18;70.78;100997.55;108056;1243;69505;-79
2022/07/13 02:26:08;;;;;;;3.60;1.50;;;;;;;11.21;70.62;100995.91;107746;1243;69832;-78
2022/07/13 02:28:52;;;;;;;4.30;2.00;;;;;;;11.23;70.36;100993.52;107772;1244;75993;-77
2022/07/13 02:31:20;;;;;;;4.90;1.80;;;;;;;11.23;69.97;100996.67;107479;1244;61802;-81
2022/07/13 02:33:49;;;;;;;8.40;1.90;;;;;;;11.20;70.52;100992.02;107767;1244;59713;-81
2022/07/13 02:36:20;;;;;;;5.30;1.70;;;;;;;11.21;70.77;100990.37;107676;1244;71659;-81
2022/07/13 02:38:55;;;;;;;3.10;1.90;;;;;;;11.19;70.71;100992.59;107700;1244;72216;-79
2022/07/13 02:41:22;;;;;;;4.60;1.80;;;;;;;11.19;70.49;100993.98;108006;1244;69004;-81
2022/07/13 02:43:53;;;;;;;5.00;1.70;;;;;;;11.16;70.29;100997.69;108160;1243;73924;-79
2022/07/13 02:46:21;;;;;;;4.50;1.80;;;;;;;11.12;69.72;100996.22;107788;1244;63268;-80
2022/07/13 02:48:51;;;;;;;3.80;1.40;;;;;;;11.10;70.18;100990.95;107866;1244;61933;-78
2022/07/13 02:51:23;;;;;;;10.10;1.70;;;;;;;11.10;70.73;100986.94;107962;1243;73431;-80
2022/07/13 02:53:50;;;;;;;16.40;2.40;;;;;;;11.08;70.27;100987.98;107922;1244;69900;-79
2022/07/13 02:56:23;;;;;;;;;;;;;;;11.06;71.28;100984.40;107958;1244;68699;-80
2022/07/13 02:58:55;;;;;;;14.40;2.30;;;;;;;11.04;71.28;100983.87;107527;1245;74885;-79
2022/07/13 03:01:26;;;;;;;15.90;2.80;;;;;;;11.03;71.24;100987.60;107883;1244;61061;-78
2022/07/13 03:03:55;;;;;;;14.40;2.10;;;;;;;11.02;71.22;100984.16;108107;1243;60381;-79
2022/07/13 03:06:25;;;;;;;11.80;2.80;;;;;;;11.00;71.63;100984.66;108126;1244;71121;-81
2022/07/13 03:08:54;;;;;;;11.30;1.70;;;;;;;11.03;71.43;100986.88;108152;1243;72224;-78
2022/07/13 03:11:21;;;;;;;14.60;2.80;;;;;;;11.12;71.24;100983.81;107934;1244;69177;-77
2022/07/13 03:13:56;;;;;;;9.80;1.90;;;;;;;11.18;71.03;100976.98;107801;1244;71950;-80
2022/07/13 03:16:29;;;;;;;10.80;2.60;;;;;;;11.24;70.77;100975.19;107886;1244;60018;-80
2022/07/13 03:18:57;;;;;;;17.30;2.80;;;;;;;11.25;71.00;100977.54;108168;1244;59730;-79
2022/07/13 03:21:32;;;;;;;7.20;2.30;;;;;;;11.26;70.89;100976.90;107950;1244;73570;-78
2022/07/13 03:24:03;;;;;;;20.10;6.90;;;;;;;11.30;70.92;100979.38;108020;1244;73405;-79
2022/07/13 03:30:45;;;;;;;12.60;2.70;;;;;;;11.48;70.71;100971.33;92027;1262;73708;-76
2022/07/13 03:33:12;;;;;;;16.90;2.10;;;;;;;11.59;69.86;100968.11;106855;1257;63069;-76
2022/07/13 03:35:40;;;;;;;9.20;1.90;;;;;;;11.70;69.22;100963.95;107319;1254;59423;-76
2022/07/13 03:38:07;;;;;;;7.10;1.80;;;;;;;11.81;68.77;100961.93;107182;1254;73835;-75
2022/07/13 03:40:37;;;;;;;11.80;2.40;;;;;;;11.98;67.89;100957.39;107350;1254;70876;-78
2022/07/13 03:43:05;;;;;;;16.60;2.60;;;;;;;12.14;67.00;100954.99;107561;1254;70688;-77
2022/07/13 03:45:33;;;;;;;15.30;2.20;;;;;;;12.28;67.25;100951.98;106840;1257;72555;-78
2022/07/13 03:48:00;;;;;;;13.40;2.90;;;;;;;12.43;66.26;100952.80;106857;1257;58986;-77
2022/07/13 03:50:28;;;;;;;24.20;3.00;;;;;;;12.60;65.99;100946.27;106809;1257;61311;-75
2022/07/13 03:52:55;;;;;;;27.30;3.00;;;;;;;12.76;65.97;100940.61;107575;1257;72784;-79
2022/07/13 03:55:23;;;;;;;20.70;3.10;;;;;;;12.96;65.05;100938.71;107968;1255;72235;-80
2022/07/13 03:57:51;;;;;;;20.80;3.00;;;;;;;13.06;63.58;100916.14;108307;1257;68426;-80
2022/07/13 04:00:18;;;;;;;10.90;2.00;;;;;;;13.42;62.01;100934.39;107901;1257;73307;-77
2022/07/13 04:02:48;;;;;;;30.00;3.10;;;;;;;13.65;60.91;100933.73;107216;1257;60876;-76
2022/07/13 04:05:17;;;;;;;31.20;3.10;;;;;;;13.85;61.31;100930.16;107639;1256;59810;-78
2022/07/13 04:07:45;;;;;;;23.30;2.60;;;;;;;14.04;60.24;100924.52;107507;1255;71805;-77
2022/07/13 04:10:13;;;;;;;19.40;2.40;;;;;;;14.21;59.13;100923.70;107170;1257;71955;-74
2022/07/13 04:12:43;;;;;;;10.20;1.90;;;;;;;14.38;57.19;100929.21;107741;1257;66985;-80
2022/07/13 04:15:12;;;;;;;7.00;1.70;;;;;;;14.61;56.16;100928.15;108275;1257;73321;-82
2022/07/13 04:17:43;;;;;;;2.50;1.30;;;;;;;14.84;55.17;100924.09;107947;1257;59346;-78
2022/07/13 04:20:12;;;;;;;4.30;1.30;;;;;;;15.13;54.17;100920.16;106862;1257;59041;-78
2022/07/13 04:22:42;;;;;;;4.80;1.30;;;;;;;15.38;53.32;100922.83;107323;1257;73698;-77
2022/07/13 04:25:09;;;;;;;3.80;1.40;;;;;;;15.63;53.59;100923.59;107284;1257;70868;-77
2022/07/13 04:27:37;;;;;;;14.20;2.00;;;;;;;15.82;52.64;100924.31;107541;1256;68772;-77
2022/07/13 04:30:07;;;;;;;18.50;1.80;;;;;;;16.01;52.70;100927.65;107305;1257;73255;-75
2022/07/13 04:32:34;;;;;;;10.80;2.20;;;;;;;16.18;54.64;100922.75;107105;1257;59556;-77
2022/07/13 04:35:01;;;;;;;12.00;2.20;;;;;;;16.30;51.92;100915.67;107140;1255;60494;-77
2022/07/13 04:37:30;;;;;;;17.50;2.30;;;;;;;16.45;53.55;100915.83;107361;1255;73540;-78
2022/07/13 04:39:58;;;;;;;8.00;2.10;;;;;;;16.59;50.98;100904.67;107528;1256;73005;-77
2022/07/13 04:42:26;;;;;;;5.00;1.70;;;;;;;16.72;51.75;100907.38;107700;1256;69093;-79
2022/07/13 04:44:57;;;;;;;4.10;2.00;;;;;;;16.91;51.58;100907.25;107175;1257;72324;-75
2022/07/13 04:47:24;;;;;;;6.10;1.70;;;;;;;17.00;51.00;100912.59;106850;1257;59056;-75
2022/07/13 04:49:52;;;;;;;6.00;1.80;;;;;;;17.05;51.19;100911.20;106495;1257;62219;-75
2022/07/13 04:52:19;;;;;;;4.00;1.90;;;;;;;17.09;49.82;100905.59;106673;1257;74199;-75
2022/07/13 04:54:47;;;;;;;7.20;3.00;;;;;;;17.13;49.73;100904.62;106521;1257;72993;-74
2022/07/13 04:57:22;;;;;;;6.60;1.90;;;;;;;17.13;50.22;100904.96;107085;1257;71053;-75
2022/07/13 04:59:49;;;;;;;4.70;2.00;;;;;;;17.28;50.66;100904.80;107679;1255;71647;-76
2022/07/13 05:02:17;;;;;;;4.00;2.10;;;;;;;17.37;50.22;100904.08;107567;1255;60300;-77
2022/07/13 05:04:45;;;;;;;11.90;3.90;;;;;;;17.47;50.01;100902.71;107074;1257;59265;-76
2022/07/13 05:07:13;;;;;;;2.90;1.80;;;;;;;17.53;50.16;100896.20;106691;1258;74099;-75
2022/07/13 05:09:41;;;;;;;5.10;1.80;;;;;;;17.56;49.64;100897.75;106834;1257;70410;-74
2022/07/13 05:12:09;;;;;;;4.60;2.10;;;;;;;17.55;49.77;100898.60;106759;1256;59415;-73
2022/07/13 05:14:36;;;;;;;5.60;1.80;;;;;;;17.55;49.85;100900.35;106870;1256;73343;-75
2022/07/13 05:17:04;;;;;;;7.90;2.80;;;;;;;17.58;49.79;100904.47;106894;1256;59344;-76
2022/07/13 05:19:31;;;;;;;6.60;2.40;;;;;;;17.61;49.67;100905.39;106533;1257;61358;-76
2022/07/13 05:21:59;;;;;;;4.50;1.90;;;;;;;17.63;49.78;100900.27;106690;1257;62829;-74
2022/07/13 05:24:26;;;;;;;3.50;2.00;;;;;;;17.72;49.75;100900.27;106803;1257;72314;-75
2022/07/13 05:26:54;;;;;;;7.70;2.10;;;;;;;17.81;49.64;100899.08;106947;1257;71417;-76
2022/07/13 05:29:21;;;;;;;5.20;1.70;;;;;;;17.87;49.05;100895.43;106932;1257;71648;-76
2022/07/13 05:31:48;;;;;;;5.90;1.90;;;;;;;18.00;49.12;100891.53;107080;1257;61697;-75
2022/07/13 05:34:17;;;;;;;4.30;1.70;;;;;;;18.13;49.02;100889.46;106827;1256;58007;-74
2022/07/13 05:36:46;;;;;;;3.70;1.40;;;;;;;18.30;48.79;100893.00;106720;1255;73725;-78
2022/07/13 05:39:13;;;;;;;3.50;1.70;;;;;;;18.47;48.18;100892.86;106739;1257;62016;-77
2022/07/13 05:41:40;;;;;;;5.80;1.60;;;;;;;18.61;47.99;100892.27;106908;1256;59948;-75
2022/07/13 05:44:08;;;;;;;4.30;1.70;;;;;;;18.69;47.94;100887.10;106626;1257;63661;-75
2022/07/13 05:46:36;;;;;;;3.50;1.70;;;;;;;18.74;47.81;100887.10;106721;1256;60434;-74
2022/07/13 05:49:04;;;;;;;5.30;1.80;;;;;;;18.83;47.41;100892.02;106685;1255;61670;-73
2022/07/13 05:51:32;;;;;;;4.50;1.60;;;;;;;18.89;47.63;100889.40;106729;1257;63870;-74
2022/07/13 05:54:04;;;;;;;6.70;1.70;;;;;;;18.99;46.79;100888.02;106872;1257;72203;-75
2022/07/13 05:56:52;;;;;;;6.50;1.70;;;;;;;19.12;46.56;100886.27;106773;1257;71352;-73
2022/07/13 05:59:19;;;;;;;2.20;1.20;;;;;;;19.30;45.75;100884.70;106798;1257;62872;-74
2022/07/13 06:01:47;;;;;;;3.10;1.20;;;;;;;19.48;45.55;100881.31;106864;1257;59033;-75
2022/07/13 06:04:16;;;;;;;4.70;1.20;;;;;;;19.73;44.23;100885.52;106901;1257;59103;-75
2022/07/13 06:06:44;;;;;;;2.30;0.90;;;;;;;19.99;42.96;100885.60;106887;1255;74711;-75
2022/07/13 06:09:11;;;;;;;2.70;0.90;;;;;;;20.15;42.40;100889.62;106970;1251;62028;-75
2022/07/13 06:11:42;;;;;;;5.20;1.40;;;;;;;20.37;41.93;100887.02;106789;1257;71594;-75
2022/07/13 06:14:09;;;;;;;2.30;1.00;;;;;;;20.53;41.70;100884.25;106654;1257;62972;-76
2022/07/13 06:16:37;;;;;;;2.10;1.10;;;;;;;20.68;41.39;100877.73;106805;1257;61391;-76
2022/07/13 06:19:08;;;;;;;2.10;0.80;;;;;;;20.79;41.03;100878.96;106891;1257;57518;-75
2022/07/13 06:21:38;;;;;;;1.40;1.00;;;;;;;20.84;40.97;100874.48;106676;1257;63038;-76
2022/07/13 06:24:06;;;;;;;1.80;1.00;;;;;;;20.89;40.96;100877.36;106665;1257;62761;-75
2022/07/13 06:26:33;;;;;;;2.40;0.90;;;;;;;21.01;40.62;100878.58;106709;1257;70339;-80
2022/07/13 06:29:01;;;;;;;3.10;1.10;;;;;;;21.10;40.37;100882.58;106801;1257;63257;-75
2022/07/13 06:31:28;;;;;;;4.60;1.00;;;;;;;21.22;40.50;100882.56;106628;1257;58776;-74
2022/07/13 06:33:56;;;;;;;1.90;1.40;;;;;;;21.48;40.64;100876.56;106822;1257;60462;-76
2022/07/13 06:36:24;;;;;;;1.50;0.70;;;;;;;21.83;38.37;100879.70;106772;1257;73765;-77
2022/07/13 06:38:51;;;;;;;4.30;0.90;;;;;;;22.05;37.40;100870.19;106764;1257;61507;-76
2022/07/13 06:41:19;;;;;;;1.40;0.90;;;;;;;22.30;37.34;100880.23;106723;1257;70754;-76
2022/07/13 06:43:47;;;;;;;1.00;0.80;;;;;;;22.30;36.84;100865.69;106636;1258;74617;-75
2022/07/13 06:46:14;;;;;;;3.90;1.00;;;;;;;22.36;36.74;100870.08;106784;1257;57512;-75
2022/07/13 06:48:41;;;;;;;1.30;0.80;;;;;;;22.42;36.38;100872.40;106550;1257;61529;-76
2022/07/13 06:51:09;;;;;;;1.60;0.90;;;;;;;22.39;36.72;100868.28;106638;1258;65302;-75
2022/07/13 06:53:37;;;;;;;3.90;0.90;;;;;;;22.41;36.39;100870.23;106612;1258;61541;-75
2022/07/13 06:56:04;;;;;;;2.20;0.80;;;;;;;22.39;36.41;100874.50;106791;1257;59933;-75
2022/07/13 06:58:31;;;;;;;1.00;0.70;;;;;;;22.33;36.33;100879.13;106690;1257;73941;-75
2022/07/13 07:01:28;;;;;;;2.60;0.70;;;;;;;22.22;36.62;100868.04;106926;1248;62741;31
2022/07/13 07:03:56;;;;;;;1.30;0.80;;;;;;;22.14;36.52;100871.11;106775;1257;58372;-76
2022/07/13 07:06:27;;;;;;;2.80;0.80;;;;;;;22.17;36.41;100868.35;106761;1257;73777;-75
2022/07/13 07:10:20;;;;;;;4.40;0.90;;;;;;;22.12;36.69;100874.27;106714;1258;72952;-76
2022/07/13 07:13:58;;;;;;;1.60;0.70;;;;;;;22.14;36.76;100878.97;107362;1250;63262;-75
2022/07/13 07:16:32;;;;;;;1.80;0.80;;;;;;;22.20;36.96;100874.67;106584;1260;63388;-75
2022/07/13 07:19:00;;;;;;;2.90;0.80;;;;;;;22.22;36.90;100872.66;106822;1257;60542;-74
2022/07/13 07:21:48;;;;;;;2.00;0.90;;;;;;;22.12;37.06;100877.09;106953;1255;61132;-74
2022/07/13 07:24:15;;;;;;;1.40;0.80;;;;;;;22.21;36.86;100873.50;107057;1256;72202;-76
2022/07/13 07:26:43;;;;;;;1.30;0.70;;;;;;;22.14;36.61;100879.36;106940;1255;72599;-75
2022/07/13 07:29:15;;;;;;;1.80;0.90;;;;;;;22.12;36.47;100879.75;106958;1257;71165;-74
2022/07/13 07:31:42;;;;;;;2.00;0.90;;;;;;;22.04;36.85;100886.69;106961;1257;63775;-77
2022/07/13 07:34:17;;;;;;;1.50;0.80;;;;;;;21.99;36.99;100881.08;106968;1256;61365;-77
2022/07/13 07:36:54;;;;;;;2.40;0.80;;;;;;;21.88;36.99;100880.45;106830;1254;62277;-73
2022/07/13 07:39:23;;;;;;;1.80;0.80;;;;;;;21.90;36.77;100890.28;107023;1254;63671;-76
2022/07/13 07:41:50;;;;;;;1.60;1.00;;;;;;;21.76;37.14;100885.54;106874;1254;61779;-76
2022/07/13 07:44:18;;;;;;;1.50;0.90;;;;;;;21.65;37.56;100884.75;106510;1257;71074;-78
2022/07/13 07:46:54;;;;;;;2.10;0.80;;;;;;;21.62;37.73;100893.36;106827;1256;63006;-75
2022/07/13 07:49:21;;;;;;;7.20;1.10;;;;;;;21.54;37.98;100895.02;106903;1256;59040;-73
2022/07/13 07:51:51;;;;;;;3.10;0.70;;;;;;;21.38;38.39;100894.91;106896;1254;60367;-74
2022/07/13 07:54:39;;;;;;;3.10;1.00;;;;;;;21.35;38.56;100896.98;106677;1257;64215;-76
2022/07/13 07:57:07;;;;;;;2.20;1.10;;;;;;;21.30;38.73;100890.73;107105;1257;61737;-78
2022/07/13 07:59:47;;;;;;;2.50;1.40;;;;;;;21.28;38.91;100898.21;107192;1257;59611;-78
2022/07/13 08:02:14;;;;;;;3.60;1.20;;;;;;;21.31;38.99;100897.71;106755;1257;62638;-76
2022/07/13 08:04:42;;;;;;;2.40;1.00;;;;;;;21.35;38.55;100899.92;106758;1257;60721;-76
2022/07/13 08:07:10;;;;;;;4.20;1.60;;;;;;;21.34;38.34;100902.82;107017;1257;59149;-78
2022/07/13 08:09:38;;;;;;;3.70;1.60;;;;;;;21.39;38.02;100903.01;106930;1257;73671;-76
2022/07/13 08:12:06;;;;;;;3.60;1.30;;;;;;;21.38;38.27;100898.14;106942;1254;72121;-76
2022/07/13 08:14:33;;;;;;;2.60;1.30;;;;;;;21.39;38.42;100895.00;106950;1257;60672;-75
2022/07/13 08:17:01;;;;;;;2.00;1.10;;;;;;;21.44;38.33;100896.38;106857;1256;72367;-77
2022/07/13 08:19:32;;;;;;;2.70;0.90;;;;;;;21.54;38.37;100901.11;107448;1257;57492;-78
2022/07/13 08:22:09;;;;;;;3.60;0.90;;;;;;;21.58;38.59;100908.09;108245;1256;60518;-77
2022/07/13 08:24:41;;;;;;;2.20;1.00;;;;;;;21.47;38.77;100908.20;108224;1255;62776;-78
2022/07/13 08:27:09;;;;;;;9.20;1.00;;;;;;;21.41;38.92;100907.84;107544;1257;71507;-74
2022/07/13 08:29:36;;;;;;;1.30;0.80;;;;;;;21.39;39.05;100905.56;107538;1260;59682;-78
2022/07/13 08:32:04;;;;;;;1.10;0.80;;;;;;;21.43;39.33;100905.83;107214;1256;72847;-80
2022/07/13 08:40:10;;;;;;;1.90;0.80;;;;;;;21.07;40.81;100910.11;107235;1257;62221;-79
2022/07/13 08:42:39;;;;;;;4.10;1.20;;;;;;;20.97;40.81;100907.82;107588;1257;71468;-78
2022/07/13 08:45:07;;;;;;;2.50;1.10;;;;;;;20.94;40.93;100909.00;106979;1257;69320;-78
2022/07/13 08:47:37;;;;;;;3.50;1.30;;;;;;;20.91;41.67;100920.08;106657;1257;74646;-79
2022/07/13 08:50:07;;;;;;;3.60;0.80;;;;;;;20.84;42.22;100922.52;106932;1259;59226;-79
2022/07/13 08:52:38;;;;;;;3.10;1.00;;;;;;;20.70;42.81;100928.34;105867;1257;1825774;-79
2022/07/13 08:55:08;;;;;;;4.50;1.50;;;;;;;20.47;44.25;100938.89;106990;1257;73665;-77
2022/07/13 08:57:39;;;;;;;6.40;1.60;;;;;;;20.32;44.79;100945.09;107805;1257;72721;-80
2022/07/13 09:00:12;;;;;;;3.90;1.80;;;;;;;20.12;46.13;100948.11;108080;1256;70273;-81
2022/07/13 09:02:40;;;;;;;2.80;1.30;;;;;;;19.83;46.97;100926.08;108022;1257;62541;-77
2022/07/13 09:05:11;;;;;;;1.90;1.10;;;;;;;19.90;48.37;100960.44;106740;1255;60594;-78
2022/07/13 09:07:38;;;;;;;2.20;1.00;;;;;;;19.82;48.87;100960.05;108168;1257;59120;-80
2022/07/13 09:10:09;;;;;;;3.00;1.00;;;;;;;19.76;50.12;100957.68;108319;1257;63064;-79
2022/07/13 09:12:41;;;;;;;1.80;0.80;;;;;;;19.70;50.58;100959.96;108299;1256;72424;-79
2022/07/13 09:15:09;;;;;;;3.50;1.10;;;;;;;19.61;51.76;100965.64;108109;1257;71240;-79
2022/07/13 09:17:36;;;;;;;2.80;1.00;;;;;;;19.54;52.55;100970.22;107660;1257;74175;-78
2022/07/13 09:20:10;;;;;;;1.40;0.90;;;;;;;19.45;54.13;100976.55;107196;1257;58968;-78
2022/07/13 09:22:54;;;;;;;2.40;0.90;;;;;;;19.27;54.87;100985.66;107122;1256;58954;-76
2022/07/13 09:25:39;;;;;;;1.60;1.00;;;;;;;18.95;55.72;100981.98;106848;1257;72053;-76
2022/07/13 09:28:10;;;;;;;1.90;1.00;;;;;;;18.78;57.80;100985.46;106975;1257;62321;-79
2022/07/13 09:30:42;;;;;;;3.30;1.30;;;;;;;18.58;58.36;100982.15;107208;1257;59305;-77
2022/07/13 09:33:11;;;;;;;2.10;1.20;;;;;;;18.45;58.09;100977.37;106890;1257;62709;-75
2022/07/13 09:35:50;;;;;;;3.40;1.10;;;;;;;18.40;57.77;100976.84;106889;1257;59426;-77
2022/07/13 09:38:38;;;;;;;1.70;0.90;;;;;;;18.39;57.99;100979.94;107133;1256;60680;-80
2022/07/13 09:41:17;;;;;;;4.20;0.90;;;;;;;18.38;58.42;100980.02;106756;1257;62852;-78
2022/07/13 09:47:06;;;;;;;8.70;1.60;;;;;;;17.99;60.42;100971.74;107149;1256;68559;-75
2022/07/13 09:49:44;;;;;;;3.70;1.30;;;;;;;17.76;61.12;100980.77;106940;1257;72890;-75
2022/07/13 09:52:16;;;;;;;4.20;1.60;;;;;;;17.44;63.04;100982.57;106560;1256;64496;-75
2022/07/13 09:54:51;;;;;;;3.70;1.50;;;;;;;17.18;64.41;100984.36;107075;1256;60964;-76
2022/07/13 09:57:23;;;;;;;6.40;2.60;;;;;;;17.03;66.31;100990.05;106955;1257;71656;-79
2022/07/13 09:59:52;;;;;;;6.30;2.50;;;;;;;17.01;68.78;100993.26;106713;1259;70479;-77
2022/07/13 10:02:20;;;;;;;5.60;2.20;;;;;;;16.83;70.69;100988.63;106864;1259;68074;-77
2022/07/13 10:04:49;;;;;;;5.90;1.80;;;;;;;16.75;69.26;100983.77;106957;1257;74164;-78
2022/07/13 10:07:21;;;;;;;4.30;2.00;;;;;;;16.77;70.08;100986.96;107442;1257;59961;-77
2022/07/13 10:09:49;;;;;;;4.60;2.20;;;;;;;16.72;70.97;100985.08;106874;1257;60625;-77
2022/07/13 10:12:18;;;;;;;5.40;1.50;;;;;;;16.70;71.62;100977.73;106789;1257;74202;-77
2022/07/13 10:14:49;;;;;;;2.60;1.80;;;;;;;16.75;70.02;100973.55;107137;1255;70970;-78
2022/07/13 10:17:22;;;;;;;2.60;1.80;;;;;;;16.75;70.58;100968.81;106962;1260;68132;-78
2022/07/13 10:19:57;;;;;;;3.20;1.50;;;;;;;16.97;69.27;100970.90;106845;1258;72100;-77
2022/07/13 10:22:36;;;;;;;3.60;1.70;;;;;;;16.94;69.93;100965.76;107145;1257;60376;-80
2022/07/13 10:25:05;;;;;;;3.60;1.40;;;;;;;17.19;68.83;100963.84;107513;1257;61096;-80
2022/07/13 10:27:35;;;;;;;2.00;1.20;;;;;;;17.26;68.73;100962.30;107302;1259;71396;-77
2022/07/13 10:30:24;;;;;;;2.50;1.60;;;;;;;17.32;68.51;100957.94;107622;1257;69909;-80
2022/07/13 10:32:52;;;;;;;2.30;1.40;;;;;;;17.54;67.62;100958.05;107013;1257;68760;-79
2022/07/13 10:35:21;;;;;;;2.30;1.60;;;;;;;17.64;67.03;100957.61;107454;1257;71228;-82
2022/07/13 10:38:00;;;;;;;3.40;1.50;;;;;;;17.58;67.65;100955.48;107114;1257;61588;-80
2022/07/13 10:40:32;;;;;;;1.50;1.30;;;;;;;17.71;66.95;100952.13;106807;1257;59569;-78
2022/07/13 10:43:05;;;;;;;2.20;1.40;;;;;;;17.85;65.98;100946.59;107185;1257;72878;-76
2022/07/13 10:45:33;;;;;;;4.50;1.80;;;;;;;17.91;66.46;100943.35;107278;1255;71830;-79
2022/07/13 10:48:03;;;;;;;2.00;1.50;;;;;;;18.07;65.85;100940.41;107628;1255;62036;-78
2022/07/13 10:50:38;;;;;;;4.10;1.50;;;;;;;18.23;65.61;100942.32;106903;1257;74049;-79
2022/07/13 10:53:16;;;;;;;2.30;1.20;;;;;;;18.24;66.64;100930.98;106888;1257;60703;-79
2022/07/13 10:55:49;;;;;;;3.60;1.50;;;;;;;18.44;65.94;100935.17;106833;1257;61735;-78
2022/07/13 10:58:55;;;;;;;3.90;1.40;;;;;;;18.42;64.94;100930.59;107411;1256;74214;-78
2022/07/13 11:02:01;;;;;;;3.10;1.40;;;;;;;18.43;65.21;100926.73;107465;1256;61210;-78
2022/07/13 11:04:47;;;;;;;3.30;1.50;;;;;;;18.46;66.27;100931.74;107234;1258;59296;-79
2022/07/13 11:07:15;;;;;;;2.50;1.40;;;;;;;18.48;65.83;100930.44;107248;1257;63149;-78
2022/07/13 11:10:21;;;;;;;2.60;1.50;;;;;;;18.47;64.13;100930.92;106779;1256;60768;-76
2022/07/13 11:13:14;;;;;;;3.10;1.30;;;;;;;18.43;64.68;100932.71;106501;1256;61021;-77
2022/07/13 11:15:55;;;;;;;2.90;1.60;;;;;;;18.38;64.85;100931.70;106897;1257;73714;-78
2022/07/13 11:18:54;;;;;;;2.00;1.40;;;;;;;18.46;64.78;100939.70;107567;1255;71504;-80
2022/07/13 11:21:23;;;;;;;3.20;1.50;;;;;;;18.56;63.33;100946.22;107970;1256;60550;-80
2022/07/13 11:26:51;;;;;;;3.20;1.50;;;;;;;18.61;62.62;100951.23;107226;1256;61440;-78
2022/07/13 11:29:48;;;;;;;;;;;;;;;18.66;62.09;100957.33;107815;1254;59054;-80
2022/07/13 11:32:22;;;;;;;4.60;1.80;;;;;;;18.72;62.51;100962.20;107637;1256;72967;-78
2022/07/13 11:34:51;;;;;;;8.30;2.10;;;;;;;18.83;62.16;100963.42;107883;1256;62580;-78
2022/07/13 11:37:42;;;;;;;2.10;1.60;;;;;;;18.93;61.96;100962.74;107947;1256;69933;-80
2022/07/13 11:40:34;;;;;;;4.30;2.00;;;;;;;19.04;61.47;100965.30;108143;1254;73651;-79
2022/07/13 11:43:02;;;;;;;2.60;1.40;;;;;;;19.08;60.98;100960.19;108316;1255;61408;-80
2022/07/13 11:45:32;;;;;;;2.60;1.30;;;;;;;19.07;61.17;100967.99;108631;1255;58666;-79
2022/07/13 11:48:13;;;;;;;3.90;1.40;;;;;;;19.00;61.63;100965.90;108478;1255;72965;-82
2022/07/13 11:50:54;;;;;;;1.80;1.30;;;;;;;18.85;62.09;100963.72;108524;1259;61334;-81
2022/07/13 11:53:27;;;;;;;2.30;1.10;;;;;;;18.75;62.79;100967.90;108272;1259;59438;-82
2022/07/13 11:56:08;;;;;;;2.50;1.60;;;;;;;18.65;62.85;100967.18;108213;1260;73235;-79